createdAt,value
2023-04-15T00:00:37.952Z,99247.06
2023-04-15T00:03:54.646Z,99244.09
2023-04-15T00:07:07.322Z,99239.53
2023-04-15T00:10:20.049Z,99235.12
2023-04-15T00:13:35.461Z,99241.38
2023-04-15T00:16:50.175Z,99241.16
2023-04-15T00:20:02.557Z,99231.56
2023-04-15T00:23:15.156Z,99231.59
2023-04-15T00:26:27.700Z,99233.16
2023-04-15T00:29:41.320Z,99233.16
2023-04-15T00:32:53.905Z,99235.59
2023-04-15T00:36:08.673Z,99238.19
2023-04-15T00:39:21.069Z,99232.44
2023-04-15T00:42:34.986Z,99224.47
2023-04-15T00:45:47.510Z,99230.00
2023-04-15T00:49:00.385Z,99238.44
2023-04-15T00:52:13.305Z,99235.66
2023-04-15T00:55:25.979Z,99235.03
2023-04-15T00:58:38.351Z,99232.81
2023-04-15T01:01:51.957Z,99226.44
2023-04-15T01:05:04.710Z,99221.66
2023-04-15T01:08:17.310Z,99217.25
2023-04-15T01:11:29.705Z,99218.03
2023-04-15T01:14:42.561Z,99215.66
2023-04-15T01:17:54.949Z,99216.06
2023-04-15T01:21:07.874Z,99224.84
2023-04-15T01:24:21.325Z,99222.44
2023-04-15T01:27:35.728Z,99223.66
2023-04-15T01:30:48.711Z,99225.66
2023-04-15T01:34:01.595Z,99225.03
2023-04-15T01:37:14.069Z,99234.47
2023-04-15T01:40:26.687Z,99235.59
2023-04-15T01:43:39.073Z,99231.63
2023-04-15T01:46:51.732Z,99236.03
2023-04-15T01:50:06.946Z,99232.44
2023-04-15T01:53:19.952Z,99247.41
2023-04-15T01:56:32.357Z,99243.62
2023-04-15T01:59:45.053Z,99245.22
2023-04-15T02:02:57.504Z,99242.44
2023-04-15T02:06:10.410Z,99236.66
2023-04-15T02:09:22.926Z,99236.03
2023-04-15T02:12:35.832Z,99246.03
2023-04-15T02:15:49.032Z,99245.19
2023-04-15T02:19:02.183Z,99249.00
2023-04-15T02:22:18.724Z,99244.38
2023-04-15T02:25:32.118Z,99243.97
2023-04-15T02:28:44.501Z,99242.28
2023-04-15T02:32:00.343Z,99244.75
2023-04-15T02:35:13.381Z,99248.75
2023-04-15T02:38:26.166Z,99251.16
2023-04-15T02:41:38.583Z,99245.53
2023-04-15T02:44:51.261Z,99252.78
2023-04-15T02:48:06.474Z,99248.16
2023-04-15T02:51:20.732Z,99249.16
2023-04-15T02:54:34.112Z,99245.59
2023-04-15T02:57:46.912Z,99246.00
2023-04-15T03:00:59.350Z,99246.41
2023-04-15T03:04:12.093Z,99244.56
2023-04-15T03:07:24.639Z,99247.09
2023-04-15T03:10:38.943Z,99252.34
2023-04-15T03:13:51.597Z,99253.16
2023-04-15T03:17:06.705Z,99245.13
2023-04-15T03:20:19.761Z,99249.88
2023-04-15T03:23:33.183Z,99248.38
2023-04-15T03:26:45.802Z,99248.81
2023-04-15T03:29:59.535Z,99245.53
2023-04-15T03:33:12.789Z,99246.37
2023-04-15T03:36:26.310Z,99244.75
2023-04-15T03:39:39.311Z,99240.41
2023-04-15T03:42:51.977Z,99243.31
2023-04-15T03:46:04.699Z,99242.34
2023-04-15T03:49:17.388Z,99244.34
2023-04-15T03:52:29.750Z,99245.94
2023-04-15T03:55:42.381Z,99248.28
2023-04-15T03:58:54.741Z,99247.53
2023-04-15T04:02:07.482Z,99245.53
2023-04-15T04:05:20.331Z,99241.97
2023-04-15T04:08:32.691Z,99243.97
2023-04-15T04:11:45.801Z,99239.91
2023-04-15T04:14:58.133Z,99243.72
2023-04-15T04:18:10.753Z,99239.56
2023-04-15T04:21:23.074Z,99241.56
2023-04-15T04:24:35.816Z,99241.19
2023-04-15T04:27:48.195Z,99235.59
2023-04-15T04:31:01.335Z,99240.81
2023-04-15T04:34:13.664Z,99246.03
2023-04-15T04:37:26.613Z,99238.81
2023-04-15T04:40:38.959Z,99248.00
2023-04-15T04:43:51.577Z,99240.81
2023-04-15T04:47:03.938Z,99245.59
2023-04-15T04:50:17.002Z,99249.59
2023-04-15T04:53:29.379Z,99250.94
2023-04-15T04:56:42.066Z,99243.00
2023-04-15T04:59:54.395Z,99247.16
2023-04-15T05:03:07.286Z,99250.19
2023-04-15T05:06:19.803Z,99248.41
2023-04-15T05:09:33.134Z,99246.81
2023-04-15T05:12:45.695Z,99249.00
2023-04-15T05:15:58.334Z,99256.34
2023-04-15T05:19:10.860Z,99266.56
2023-04-15T05:22:23.506Z,99268.72
2023-04-15T05:25:37.281Z,99273.91
2023-04-15T05:28:50.326Z,99266.31
2023-04-15T05:32:02.686Z,99260.34
2023-04-15T05:35:15.356Z,99273.12
2023-04-15T05:38:27.738Z,99273.50
2023-04-15T05:41:40.620Z,99269.34
2023-04-15T05:44:52.995Z,99264.56
2023-04-15T05:48:05.645Z,99261.19
2023-04-15T05:51:17.992Z,99264.56
2023-04-15T05:54:30.619Z,99268.38
2023-04-15T05:57:43.014Z,99275.56
2023-04-15T06:00:55.692Z,99285.56
2023-04-15T06:04:08.377Z,99282.94
2023-04-15T06:07:21.153Z,99289.69
2023-04-15T06:10:36.691Z,99292.75
2023-04-15T06:13:49.215Z,99296.25
2023-04-15T06:17:02.136Z,99295.03
2023-04-15T06:20:14.910Z,99298.78
2023-04-15T06:23:28.062Z,99300.25
2023-04-15T06:26:40.626Z,99303.03
2023-04-15T06:29:53.296Z,99302.41
2023-04-15T06:33:06.415Z,99303.31
2023-04-15T06:36:19.486Z,99312.00
2023-04-15T06:39:31.861Z,99304.62
2023-04-15T06:42:44.522Z,99306.28
2023-04-15T06:45:57.418Z,99311.91
2023-04-15T06:49:10.411Z,99311.00
2023-04-15T06:52:23.231Z,99314.34
2023-04-15T06:55:35.934Z,99318.13
2023-04-15T06:58:48.294Z,99328.72
2023-04-15T07:02:01.540Z,99327.16
2023-04-15T07:05:14.084Z,99324.25
2023-04-15T07:08:26.756Z,99319.03
2023-04-15T07:11:39.102Z,99332.03
2023-04-15T07:14:51.886Z,99329.19
2023-04-15T07:18:04.283Z,99328.38
2023-04-15T07:21:17.250Z,99325.41
2023-04-15T07:24:29.597Z,99323.59
2023-04-15T07:27:42.479Z,99330.63
2023-04-15T07:30:55.527Z,99330.03
2023-04-15T07:34:08.546Z,99329.44
2023-04-15T07:37:20.946Z,99332.44
2023-04-15T07:40:33.752Z,99331.00
2023-04-15T07:43:46.089Z,99336.41
2023-04-15T07:46:58.717Z,99336.00
2023-04-15T07:50:14.818Z,99345.28
2023-04-15T07:53:27.495Z,99350.03
2023-04-15T07:56:39.842Z,99352.78
2023-04-15T07:59:52.836Z,99348.72
2023-04-15T08:03:05.372Z,99349.09
2023-04-15T08:06:18.658Z,99345.91
2023-04-15T08:09:31.304Z,99348.41
2023-04-15T08:12:43.939Z,99345.69
2023-04-15T08:16:17.445Z,99340.25
2023-04-15T08:19:30.952Z,99346.13
2023-04-15T08:22:43.374Z,99349.22
2023-04-15T08:25:56.267Z,99355.94
2023-04-15T08:29:09.205Z,99361.37
2023-04-15T08:32:22.702Z,99361.84
2023-04-15T08:35:35.137Z,99354.44
2023-04-15T08:38:47.911Z,99353.97
2023-04-15T08:42:04.055Z,99352.84
2023-04-15T08:45:16.803Z,99355.41
2023-04-15T08:48:29.554Z,99360.81
2023-04-15T08:51:42.228Z,99364.53
2023-04-15T08:54:56.926Z,99363.81
2023-04-15T08:58:10.699Z,99364.06
2023-04-15T09:01:23.158Z,99368.28
2023-04-15T09:04:35.824Z,99369.94
2023-04-15T09:07:48.822Z,99372.50
2023-04-15T09:11:04.570Z,99371.00
2023-04-15T09:14:17.459Z,99371.88
2023-04-15T09:17:31.237Z,99372.00
2023-04-15T09:20:43.640Z,99366.84
2023-04-15T09:23:58.236Z,99377.78
2023-04-15T09:27:11.230Z,99368.78
2023-04-15T09:30:24.080Z,99378.72
2023-04-15T09:33:36.746Z,99371.44
2023-04-15T09:36:54.511Z,99377.53
2023-04-15T09:40:08.921Z,99376.44
2023-04-15T09:43:22.078Z,99369.56
2023-04-15T09:46:44.390Z,99370.06
2023-04-15T09:50:00.654Z,99367.25
2023-04-15T09:53:19.806Z,99366.69
2023-04-15T09:56:37.881Z,99369.94
2023-04-15T09:59:51.118Z,99365.88
2023-04-15T10:03:05.407Z,99367.13
2023-04-15T10:06:18.239Z,99370.78
2023-04-15T10:09:30.790Z,99378.56
2023-04-15T10:12:43.480Z,99386.94
2023-04-15T10:16:11.840Z,99379.97
2023-04-15T10:19:24.982Z,99388.50
2023-04-15T10:22:37.408Z,99382.25
2023-04-15T10:25:51.238Z,99383.16
2023-04-15T10:29:03.838Z,99386.66
2023-04-15T10:32:18.958Z,99381.47
2023-04-15T10:35:31.751Z,99376.28
2023-04-15T10:38:45.727Z,99392.53
2023-04-15T10:42:08.615Z,99397.53
2023-04-15T10:45:21.237Z,99394.38
2023-04-15T10:48:33.639Z,99395.34
2023-04-15T10:51:47.465Z,99403.47
2023-04-15T10:55:04.673Z,99407.69
2023-04-15T10:58:17.356Z,99398.28
2023-04-15T11:01:56.819Z,99401.47
2023-04-15T11:05:10.941Z,99405.97
2023-04-15T11:08:59.354Z,99400.53
2023-04-15T11:12:12.155Z,99413.56
2023-04-15T11:15:40.678Z,99422.50
2023-04-15T11:18:56.541Z,99417.06
2023-04-15T11:22:09.973Z,99414.78
2023-04-15T11:25:29.887Z,99418.81
2023-04-15T11:28:44.873Z,99420.19
2023-04-15T11:32:09.998Z,99430.25
2023-04-15T11:35:22.489Z,99435.16
2023-04-15T11:38:35.348Z,99423.75
2023-04-15T11:41:47.649Z,99416.94
2023-04-15T11:45:07.716Z,99422.41
2023-04-15T11:48:21.912Z,99429.00
2023-04-15T11:51:34.975Z,99421.44
2023-04-15T11:54:47.272Z,99425.78
2023-04-15T11:58:08.447Z,99428.19
2023-04-15T12:01:20.781Z,99427.66
2023-04-15T12:04:33.714Z,99435.25
2023-04-15T12:08:00.516Z,99433.75
2023-04-15T12:11:13.166Z,99427.75
2023-04-15T12:14:29.574Z,99440.25
2023-04-15T12:17:51.025Z,99436.63
2023-04-15T12:21:11.012Z,99431.53
2023-04-15T12:24:23.734Z,99430.59
2023-04-15T12:27:36.801Z,99436.53
2023-04-15T12:30:51.609Z,99440.16
2023-04-15T12:34:04.802Z,99430.16
2023-04-15T12:37:17.795Z,99429.47
2023-04-15T12:40:30.403Z,99430.81
2023-04-15T12:43:45.629Z,99442.88
2023-04-15T12:46:58.245Z,99446.72
2023-04-15T12:50:11.440Z,99445.13
2023-04-15T12:53:23.729Z,99439.63
2023-04-15T12:56:36.378Z,99451.50
2023-04-15T12:59:48.716Z,99454.38
2023-04-15T13:03:02.454Z,99451.75
2023-04-15T13:06:16.071Z,99457.72
2023-04-15T13:09:28.653Z,99461.38
2023-04-15T13:12:41.685Z,99468.63
2023-04-15T13:15:54.417Z,99466.16
2023-04-15T13:19:06.842Z,99465.66
2023-04-15T13:22:19.516Z,99462.44
2023-04-15T13:25:31.877Z,99475.41
2023-04-15T13:28:44.593Z,99472.38
2023-04-15T13:31:57.021Z,99464.50
2023-04-15T13:35:09.670Z,99468.84
2023-04-15T13:38:21.992Z,99473.84
2023-04-15T13:41:34.631Z,99475.50
2023-04-15T13:44:46.937Z,99476.13
2023-04-15T13:47:59.639Z,99489.09
2023-04-15T13:51:12.049Z,99478.41
2023-04-15T13:54:24.693Z,99475.19
2023-04-15T13:57:50.714Z,99477.41
2023-04-15T14:01:05.746Z,99479.31
2023-04-15T14:04:19.177Z,99487.25
2023-04-15T14:07:31.614Z,99482.22
2023-04-15T14:10:48.434Z,99482.16
2023-04-15T14:14:01.111Z,99496.13
2023-04-15T14:17:13.820Z,99500.94
2023-04-15T14:20:26.130Z,99488.88
2023-04-15T14:23:38.810Z,99493.00
2023-04-15T14:26:51.196Z,99500.22
2023-04-15T14:30:04.173Z,99500.94
2023-04-15T14:33:16.518Z,99507.56
2023-04-15T14:36:29.172Z,99511.25
2023-04-15T14:39:41.960Z,99503.34
2023-04-15T14:42:54.618Z,99511.03
2023-04-15T14:46:07.063Z,99512.84
2023-04-15T14:49:19.726Z,99513.94
2023-04-15T14:52:38.808Z,99522.38
2023-04-15T14:55:51.446Z,99524.81
2023-04-15T14:59:03.932Z,99533.38
2023-04-15T15:02:31.655Z,99529.75
2023-04-15T15:05:49.279Z,99528.44
2023-04-15T15:09:02.239Z,99531.47
2023-04-15T15:12:14.749Z,99524.59
2023-04-15T15:15:29.046Z,99519.16
2023-04-15T15:18:41.643Z,99525.25
2023-04-15T15:21:54.300Z,99523.06
2023-04-15T15:25:06.781Z,99524.50
2023-04-15T15:28:19.480Z,99539.16
2023-04-15T15:31:31.860Z,99531.91
2023-04-15T15:34:44.547Z,99537.16
2023-04-15T15:37:56.879Z,99545.63
2023-04-15T15:41:09.554Z,99546.94
2023-04-15T15:44:21.930Z,99544.72
2023-04-15T15:47:34.601Z,99550.44
2023-04-15T15:50:47.021Z,99554.00
2023-04-15T15:53:59.684Z,99565.47
2023-04-15T15:57:12.204Z,99565.28
2023-04-15T16:00:24.875Z,99570.22
2023-04-15T16:03:37.568Z,99574.53
2023-04-15T16:06:50.102Z,99572.88
2023-04-15T16:10:02.714Z,99572.28
2023-04-15T16:13:15.439Z,99578.59
2023-04-15T16:16:30.009Z,99584.53
2023-04-15T16:19:42.434Z,99582.72
2023-04-15T16:23:15.184Z,99584.34
2023-04-15T16:26:27.640Z,99591.75
2023-04-15T16:29:40.299Z,99594.63
2023-04-15T16:32:52.785Z,99593.19
2023-04-15T16:36:05.763Z,99594.84
2023-04-15T16:39:19.337Z,99588.41
2023-04-15T16:42:31.977Z,99596.50
2023-04-15T16:45:45.388Z,99599.69
2023-04-15T16:48:58.128Z,99599.66
2023-04-15T16:52:10.860Z,99604.16
2023-04-15T16:55:23.516Z,99611.09
2023-04-15T16:58:35.867Z,99616.34
2023-04-15T17:01:48.728Z,99611.22
2023-04-15T17:05:01.202Z,99620.84
2023-04-15T17:08:13.833Z,99619.53
2023-04-15T17:11:27.271Z,99623.97
2023-04-15T17:14:39.906Z,99629.28
2023-04-15T17:17:52.323Z,99628.53
2023-04-15T17:21:05.340Z,99630.94
2023-04-15T17:24:17.792Z,99635.75
2023-04-15T17:27:31.111Z,99638.19
2023-04-15T17:30:43.437Z,99640.75
2023-04-15T17:34:07.232Z,99650.03
2023-04-15T17:37:22.046Z,99655.88
2023-04-15T17:40:34.658Z,99654.66
2023-04-15T17:43:47.007Z,99650.25
2023-04-15T17:46:59.654Z,99658.31
2023-04-15T17:50:12.001Z,99653.91
2023-04-15T17:53:24.644Z,99660.13
2023-04-15T17:56:37.463Z,99666.13
2023-04-15T17:59:50.254Z,99671.13
2023-04-15T18:03:02.861Z,99671.16
2023-04-15T18:06:17.010Z,99679.56
2023-04-15T18:09:29.346Z,99676.38
2023-04-15T18:12:41.988Z,99681.59
2023-04-15T18:15:55.483Z,99687.81
2023-04-15T18:19:08.213Z,99684.41
2023-04-15T18:22:20.724Z,99684.59
2023-04-15T18:25:34.226Z,99687.59
2023-04-15T18:28:46.759Z,99696.41
2023-04-15T18:32:00.406Z,99706.84
2023-04-15T18:35:13.007Z,99700.03
2023-04-15T18:38:25.760Z,99709.66
2023-04-15T18:41:38.153Z,99714.47
2023-04-15T18:44:51.075Z,99729.28
2023-04-15T18:48:03.536Z,99734.06
2023-04-15T18:51:16.264Z,99743.28
2023-04-15T18:54:28.656Z,99749.69
2023-04-15T18:57:44.794Z,99752.91
2023-04-15T19:00:57.571Z,99755.72
2023-04-15T19:04:11.321Z,99755.13
2023-04-15T19:07:24.081Z,99755.72
2023-04-15T19:10:36.780Z,99776.97
2023-04-15T19:13:49.144Z,99774.94
2023-04-15T19:17:01.846Z,99796.22
2023-04-15T19:20:14.216Z,99789.41
2023-04-15T19:23:26.907Z,99792.59
2023-04-15T19:26:39.293Z,99800.41
2023-04-15T19:29:51.907Z,99801.44
2023-04-15T19:33:04.287Z,99803.22
2023-04-15T19:36:18.292Z,99809.03
2023-04-15T19:39:30.752Z,99811.66
2023-04-15T19:42:44.240Z,99810.50
2023-04-15T19:45:56.671Z,99820.56
2023-04-15T19:49:09.608Z,99818.91
2023-04-15T19:52:22.443Z,99832.38
2023-04-15T19:55:35.128Z,99836.78
2023-04-15T19:58:52.700Z,99838.00
2023-04-15T20:02:05.484Z,99838.16
2023-04-15T20:05:18.237Z,99837.16
2023-04-15T20:08:30.669Z,99841.56
2023-04-15T20:12:10.041Z,99845.16
2023-04-15T20:15:16.545Z,99855.41
2023-04-15T20:18:29.172Z,99851.25
2023-04-15T20:21:41.522Z,99846.88
2023-04-15T20:24:54.176Z,99843.53
2023-04-15T20:28:06.552Z,99849.22
2023-04-15T20:31:19.223Z,99849.84
2023-04-15T20:34:31.754Z,99846.47
2023-04-15T20:37:45.080Z,99853.66
2023-04-15T20:40:58.199Z,99858.88
2023-04-15T20:44:10.842Z,99861.38
2023-04-15T20:47:23.192Z,99862.69
2023-04-15T20:50:35.962Z,99871.09
2023-04-15T20:53:49.141Z,99865.03
2023-04-15T20:57:02.022Z,99872.47
2023-04-15T21:00:15.176Z,99873.63
2023-04-15T21:03:27.983Z,99876.75
2023-04-15T21:06:40.571Z,99880.97
2023-04-15T21:09:53.309Z,99884.88
2023-04-15T21:13:06.794Z,99889.59
2023-04-15T21:16:19.453Z,99895.91
2023-04-15T21:19:31.833Z,99895.34
2023-04-15T21:22:44.786Z,99898.66
2023-04-15T21:25:57.418Z,99906.09
2023-04-15T21:29:11.732Z,99899.22
2023-04-15T21:32:24.539Z,99906.84
2023-04-15T21:35:37.245Z,99906.69
2023-04-15T21:38:49.702Z,99902.25
2023-04-15T21:42:02.845Z,99897.41
2023-04-15T21:45:16.352Z,99902.87
2023-04-15T21:48:29.129Z,99906.06
2023-04-15T21:51:41.543Z,99913.00
2023-04-15T21:54:54.258Z,99909.69
2023-04-15T21:58:06.570Z,99910.34
2023-04-15T22:01:19.306Z,99911.50
2023-04-15T22:04:32.013Z,99916.69
2023-04-15T22:07:44.403Z,99913.50
2023-04-15T22:10:57.052Z,99909.91
2023-04-15T22:14:09.401Z,99914.69
2023-04-15T22:17:22.057Z,99913.69
2023-04-15T22:20:34.429Z,99914.12
2023-04-15T22:23:48.115Z,99918.94
2023-04-15T22:27:00.665Z,99918.56
2023-04-15T22:30:13.285Z,99922.78
2023-04-15T22:33:25.803Z,99920.53
2023-04-15T22:36:38.456Z,99924.16
2023-04-15T22:39:50.965Z,99925.75
2023-04-15T22:43:03.547Z,99928.34
2023-04-15T22:46:16.782Z,99925.13
2023-04-15T22:49:29.474Z,99924.50
2023-04-15T22:52:43.333Z,99919.56
2023-04-15T22:55:56.051Z,99931.19
2023-04-15T22:59:08.657Z,99931.13
2023-04-15T23:02:21.635Z,99946.19
2023-04-15T23:05:34.288Z,99947.87
2023-04-15T23:08:47.837Z,99962.22
2023-04-15T23:12:01.308Z,99951.91
2023-04-15T23:15:13.986Z,99951.84
2023-04-15T23:18:26.361Z,99953.31
2023-04-15T23:21:39.029Z,99948.50
2023-04-15T23:24:51.376Z,99951.28
2023-04-15T23:28:04.021Z,99944.28
2023-04-15T23:31:16.439Z,99948.31
2023-04-15T23:34:29.158Z,99948.16
2023-04-15T23:37:41.538Z,99948.03
2023-04-15T23:40:54.213Z,99951.59
2023-04-15T23:44:06.582Z,99949.66
2023-04-15T23:47:19.297Z,99948.63
2023-04-15T23:50:31.735Z,99941.84
2023-04-15T23:53:44.342Z,99942.28
2023-04-15T23:56:56.714Z,99941.41
